createdAt,value
2017-11-22T00:00:39.056Z,97428.97
2017-11-22T00:01:42.625Z,97436.67
2017-11-22T00:02:46.245Z,97444.89
2017-11-22T00:03:49.817Z,97439.28
2017-11-22T00:04:53.508Z,97430.19
2017-11-22T00:05:57.441Z,97433.20
2017-11-22T00:07:01.179Z,97429.71
2017-11-22T00:08:05.916Z,97427.09
2017-11-22T00:09:09.491Z,97430.16
2017-11-22T00:10:13.080Z,97429.77
2017-11-22T00:11:16.931Z,97429.33
2017-11-22T00:12:20.834Z,97436.20
2017-11-22T00:13:24.473Z,97423.22
2017-11-22T00:14:28.081Z,97421.47
2017-11-22T00:15:31.702Z,97417.97
2017-11-22T00:16:35.342Z,97397.23
2017-11-22T00:17:38.943Z,97409.00
2017-11-22T00:18:43.022Z,97407.68
2017-11-22T00:19:46.625Z,97438.45
2017-11-22T00:20:50.297Z,97403.82
2017-11-22T00:21:53.932Z,97439.73
2017-11-22T00:22:59.125Z,97417.69
2017-11-22T00:24:02.762Z,97437.10
2017-11-22T00:25:06.924Z,97427.59
2017-11-22T00:26:10.566Z,97434.50
2017-11-22T00:27:14.233Z,97434.42
2017-11-22T00:28:17.878Z,97431.03
2017-11-22T00:29:21.550Z,97424.52
2017-11-22T00:30:25.261Z,97424.57
2017-11-22T00:31:29.593Z,97427.53
2017-11-22T00:32:33.217Z,97412.78
2017-11-22T00:33:36.874Z,97419.28
2017-11-22T00:34:40.510Z,97424.95
2017-11-22T00:35:44.087Z,97422.84
2017-11-22T00:36:47.688Z,97415.91
2017-11-22T00:37:51.714Z,97417.64
2017-11-22T00:38:55.346Z,97403.84
2017-11-22T00:39:58.900Z,97419.34
2017-11-22T00:41:02.551Z,97421.58
2017-11-22T00:42:06.220Z,97396.98
2017-11-22T00:43:09.859Z,97412.03
2017-11-22T00:44:13.768Z,97416.83
2017-11-22T00:45:17.349Z,97421.58
2017-11-22T00:46:20.999Z,97391.76
2017-11-22T00:47:24.599Z,97424.13
2017-11-22T00:48:28.200Z,97398.64
2017-11-22T00:49:31.790Z,97424.55
2017-11-22T00:50:35.840Z,97408.95
2017-11-22T00:51:39.425Z,97426.30
2017-11-22T00:52:42.955Z,97415.91
2017-11-22T00:53:46.462Z,97419.80
2017-11-22T00:54:50.018Z,97418.05
2017-11-22T00:55:53.611Z,97390.37
2017-11-22T00:56:57.707Z,97413.64
2017-11-22T00:58:01.306Z,97419.63
2017-11-22T00:59:04.965Z,97418.80
2017-11-22T01:00:08.844Z,97418.75
2017-11-22T01:01:12.463Z,97418.36
2017-11-22T01:02:16.129Z,97412.74
2017-11-22T01:03:20.055Z,97412.76
2017-11-22T01:04:23.696Z,97409.27
2017-11-22T01:05:27.306Z,97412.31
2017-11-22T01:06:30.926Z,97401.94
2017-11-22T01:07:34.524Z,97414.86
2017-11-22T01:08:38.204Z,97408.45
2017-11-22T01:09:42.224Z,97407.17
2017-11-22T01:10:45.868Z,97409.35
2017-11-22T01:11:49.442Z,97406.36
2017-11-22T01:12:53.090Z,97423.62
2017-11-22T01:13:56.823Z,97426.67
2017-11-22T01:15:00.446Z,97412.91
2017-11-22T01:16:04.416Z,97411.52
2017-11-22T01:17:08.075Z,97405.83
2017-11-22T01:18:11.646Z,97411.06
2017-11-22T01:19:15.250Z,97406.72
2017-11-22T01:20:18.807Z,97421.48
2017-11-22T01:21:22.429Z,97414.13
2017-11-22T01:22:27.091Z,97416.32
2017-11-22T01:23:30.727Z,97408.07
2017-11-22T01:24:34.314Z,97376.14
2017-11-22T01:25:37.950Z,97421.06
2017-11-22T01:26:41.579Z,97416.74
2017-11-22T01:27:45.148Z,97395.19
2017-11-22T01:28:49.127Z,97416.31
2017-11-22T01:29:52.737Z,97410.69
2017-11-22T01:30:56.281Z,97406.81
2017-11-22T01:31:59.878Z,97400.74
2017-11-22T01:33:03.500Z,97402.95
2017-11-22T01:34:07.106Z,97353.31
2017-11-22T01:35:11.021Z,97400.30
2017-11-22T01:36:14.681Z,97411.54
2017-11-22T01:37:18.320Z,97405.91
2017-11-22T01:38:21.879Z,97355.41
2017-11-22T01:39:25.496Z,97405.02
2017-11-22T01:40:29.122Z,97387.80
2017-11-22T01:41:33.192Z,97392.03
2017-11-22T01:42:36.946Z,97395.92
2017-11-22T01:43:40.611Z,97394.63
2017-11-22T01:44:44.178Z,97398.98
2017-11-22T01:45:48.007Z,97368.78
2017-11-22T01:46:51.656Z,97415.80
2017-11-22T01:47:55.763Z,97402.94
2017-11-22T01:48:59.272Z,97398.16
2017-11-22T01:50:02.856Z,97401.17
2017-11-22T01:51:06.372Z,97388.20
2017-11-22T01:52:09.938Z,97395.54
2017-11-22T01:53:13.464Z,97388.20
2017-11-22T01:54:17.459Z,97393.38
2017-11-22T01:55:20.996Z,97393.78
2017-11-22T01:56:24.596Z,97392.47
2017-11-22T01:57:28.201Z,97388.59
2017-11-22T01:58:31.800Z,97392.48
2017-11-22T01:59:35.405Z,97390.72
2017-11-22T02:00:44.598Z,97369.66
2017-11-22T02:01:48.198Z,97397.66
2017-11-22T02:02:55.996Z,97390.27
2017-11-22T02:03:59.628Z,97385.95
2017-11-22T02:05:03.193Z,97331.52
2017-11-22T02:06:06.732Z,97385.05
2017-11-22T02:07:10.835Z,97390.23
2017-11-22T02:08:14.584Z,97382.38
2017-11-22T02:09:18.208Z,97385.82
2017-11-22T02:10:22.443Z,97387.08
2017-11-22T02:11:26.014Z,97374.55
2017-11-22T02:12:29.706Z,97376.30
2017-11-22T02:13:33.810Z,97377.47
2017-11-22T02:14:37.321Z,97377.44
2017-11-22T02:15:40.784Z,97384.01
2017-11-22T02:16:44.339Z,97386.34
2017-11-22T02:17:47.757Z,97383.81
2017-11-22T02:18:51.197Z,97381.30
2017-11-22T02:19:55.066Z,97376.05
2017-11-22T02:20:59.568Z,97379.02
2017-11-22T02:22:03.204Z,97369.88
2017-11-22T02:23:06.876Z,97374.18
2017-11-22T02:24:10.518Z,97380.19
2017-11-22T02:25:14.155Z,97375.72
2017-11-22T02:26:18.081Z,97398.34
2017-11-22T02:28:35.853Z,97384.22
2017-11-22T02:29:39.450Z,97385.88
2017-11-22T02:30:42.980Z,97377.61
2017-11-22T02:31:46.625Z,97377.98
2017-11-22T02:32:50.620Z,97370.52
2017-11-22T02:33:54.255Z,97373.14
2017-11-22T02:34:57.895Z,97373.17
2017-11-22T02:36:01.525Z,97371.94
2017-11-22T02:37:05.113Z,97368.12
2017-11-22T02:38:09.754Z,97341.72
2017-11-22T02:39:14.619Z,97362.39
2017-11-22T02:40:18.236Z,97360.12
2017-11-22T02:41:22.085Z,97354.08
2017-11-22T02:42:25.686Z,97357.09
2017-11-22T02:43:29.321Z,97364.00
2017-11-22T02:44:32.924Z,97359.78
2017-11-22T02:45:37.041Z,97351.85
2017-11-22T02:46:40.662Z,97350.16
2017-11-22T02:47:44.323Z,97339.77
2017-11-22T02:48:47.898Z,97356.94
2017-11-22T02:49:51.602Z,97348.63
2017-11-22T02:50:55.250Z,97343.02
2017-11-22T02:51:59.169Z,97348.06
2017-11-22T02:53:02.865Z,97350.66
2017-11-22T02:54:06.501Z,97375.81
2017-11-22T02:55:10.137Z,97363.77
2017-11-22T02:56:13.785Z,97367.62
2017-11-22T02:57:17.382Z,97361.53
2017-11-22T02:58:21.446Z,97356.27
2017-11-22T02:59:24.896Z,97351.41
2017-11-22T03:00:28.447Z,97359.16
2017-11-22T03:01:31.905Z,97350.41
2017-11-22T03:02:35.399Z,97352.63
2017-11-22T03:03:38.859Z,97356.63
2017-11-22T03:04:42.782Z,97354.45
2017-11-22T03:05:46.400Z,97348.81
2017-11-22T03:06:50.003Z,97363.09
2017-11-22T03:07:53.686Z,97348.00
2017-11-22T03:08:57.320Z,97349.23
2017-11-22T03:10:00.936Z,97353.72
2017-11-22T03:11:05.044Z,97260.14
2017-11-22T03:12:08.617Z,97339.83
2017-11-22T03:13:12.173Z,97345.45
2017-11-22T03:14:16.207Z,97346.70
2017-11-22T03:15:19.822Z,97340.04
2017-11-22T03:16:23.978Z,97328.54
2017-11-22T03:17:27.635Z,97345.38
2017-11-22T03:18:31.409Z,97337.95
2017-11-22T03:19:35.017Z,97341.48
2017-11-22T03:20:38.647Z,97338.44
2017-11-22T03:21:42.905Z,97334.09
2017-11-22T03:22:46.946Z,97337.18
2017-11-22T03:23:50.409Z,97331.57
2017-11-22T03:24:53.907Z,97302.75
2017-11-22T03:25:57.377Z,97334.06
2017-11-22T03:27:00.886Z,97328.77
2017-11-22T03:28:04.328Z,97316.20
2017-11-22T03:29:08.250Z,97332.36
2017-11-22T03:30:11.727Z,97323.80
2017-11-22T03:31:15.332Z,97336.73
2017-11-22T03:32:18.980Z,97343.34
2017-11-22T03:33:23.514Z,97335.82
2017-11-22T03:34:27.164Z,97318.91
2017-11-22T03:35:31.159Z,97320.13
2017-11-22T03:36:34.869Z,97333.03
2017-11-22T03:37:38.536Z,97319.22
2017-11-22T03:38:42.150Z,97323.59
2017-11-22T03:39:45.805Z,97311.98
2017-11-22T03:40:49.432Z,97321.09
2017-11-22T03:41:53.486Z,97331.97
2017-11-22T03:42:57.079Z,97326.73
2017-11-22T03:44:00.682Z,97336.23
2017-11-22T03:45:04.329Z,97212.80
2017-11-22T03:46:07.944Z,97333.17
2017-11-22T03:47:11.621Z,97328.02
2017-11-22T03:48:16.729Z,97321.91
2017-11-22T03:49:20.388Z,97335.86
2017-11-22T03:50:29.020Z,97333.20
2017-11-22T03:51:37.606Z,97334.84
2017-11-22T03:53:52.175Z,97330.64
2017-11-22T03:54:56.079Z,97337.08
2017-11-22T03:55:59.705Z,97334.73
2017-11-22T03:57:03.313Z,97341.59
2017-11-22T03:58:16.847Z,97339.38
2017-11-22T03:59:20.479Z,97328.70
2017-11-22T04:00:24.083Z,97342.90
2017-11-22T04:01:28.116Z,97343.84
2017-11-22T04:03:18.535Z,97338.56
2017-11-22T04:04:22.195Z,97340.24
2017-11-22T04:05:25.806Z,97345.34
2017-11-22T04:06:29.448Z,97356.77
2017-11-22T04:07:33.061Z,97357.30
2017-11-22T04:08:36.703Z,97345.50
2017-11-22T04:09:40.388Z,97342.34
2017-11-22T04:10:43.980Z,97344.09
2017-11-22T04:11:47.591Z,97345.75
2017-11-22T04:12:51.736Z,97343.09
2017-11-22T04:13:55.351Z,97344.45
2017-11-22T04:14:58.906Z,97338.81
2017-11-22T04:16:02.537Z,97333.52
2017-11-22T04:17:06.178Z,97333.17
2017-11-22T04:18:09.783Z,97329.81
2017-11-22T04:19:18.934Z,97325.59
2017-11-22T04:20:27.642Z,97327.30
2017-11-22T04:21:31.261Z,97330.35
2017-11-22T04:22:34.931Z,97338.21
2017-11-22T04:23:38.625Z,97335.63
2017-11-22T04:24:42.256Z,97321.05
2017-11-22T04:25:46.266Z,97308.94
2017-11-22T04:26:49.866Z,97328.30
2017-11-22T04:27:53.495Z,97322.60
2017-11-22T04:28:57.136Z,97325.33
2017-11-22T04:30:00.782Z,97326.37
2017-11-22T04:31:04.450Z,97326.30
2017-11-22T04:32:08.438Z,97326.28
2017-11-22T04:33:12.039Z,97338.40
2017-11-22T04:34:15.685Z,97334.41
2017-11-22T04:35:19.278Z,97265.80
2017-11-22T04:36:22.740Z,97322.58
2017-11-22T04:37:26.320Z,97327.40
2017-11-22T04:38:30.112Z,97326.41
2017-11-22T04:39:33.581Z,97324.28
2017-11-22T04:40:37.126Z,97325.61
2017-11-22T04:41:40.684Z,97325.61
2017-11-22T04:42:44.179Z,97323.09
2017-11-22T04:43:47.750Z,97327.02
2017-11-22T04:44:51.770Z,97323.11
2017-11-22T04:45:55.362Z,97338.28
2017-11-22T04:46:59.008Z,97327.45
2017-11-22T04:48:02.636Z,97314.83
2017-11-22T04:49:06.250Z,97322.93
2017-11-22T04:50:09.764Z,97324.17
2017-11-22T04:51:13.869Z,97326.66
2017-11-22T04:52:17.377Z,97323.95
2017-11-22T04:53:20.973Z,97323.57
2017-11-22T04:54:24.553Z,97318.37
2017-11-22T04:55:28.256Z,97315.83
2017-11-22T04:56:32.291Z,97314.03
2017-11-22T04:57:35.951Z,97318.31
2017-11-22T04:58:39.549Z,97310.28
2017-11-22T04:59:43.254Z,97307.61
2017-11-22T05:15:22.600Z,97267.00
2017-11-22T05:16:26.281Z,97303.87
2017-11-22T05:17:29.895Z,97297.73
2017-11-22T05:18:33.599Z,97285.63
2017-11-22T05:19:37.252Z,97287.11
2017-11-22T05:20:41.350Z,97298.22
2017-11-22T05:21:45.051Z,97288.68
2017-11-22T05:22:48.670Z,97307.21
2017-11-22T05:23:52.315Z,97302.38
2017-11-22T05:24:55.998Z,97304.92
2017-11-22T05:25:59.637Z,97292.98
2017-11-22T05:27:03.723Z,97294.55
2017-11-22T05:28:07.362Z,97270.02
2017-11-22T05:29:10.964Z,97296.45
2017-11-22T05:30:14.611Z,97299.87
2017-11-22T05:31:18.309Z,97298.51
2017-11-22T05:32:21.958Z,97300.33
2017-11-22T05:33:26.010Z,97276.98
2017-11-22T05:34:29.635Z,97295.41
2017-11-22T05:35:33.243Z,97297.12
2017-11-22T05:36:37.086Z,97281.59
2017-11-22T05:37:40.783Z,97287.27
2017-11-22T05:38:44.581Z,97293.71
2017-11-22T05:39:48.709Z,97284.78
2017-11-22T05:40:53.285Z,97291.77
2017-11-22T05:41:56.930Z,97283.09
2017-11-22T05:43:00.573Z,97288.28
2017-11-22T05:44:04.242Z,97283.48
2017-11-22T05:45:07.967Z,97247.62
2017-11-22T05:46:11.988Z,97287.63
2017-11-22T05:47:15.723Z,97230.83
2017-11-22T05:48:19.364Z,97288.30
2017-11-22T05:49:23.024Z,97285.78
2017-11-22T05:50:26.679Z,97287.55
2017-11-22T05:51:30.293Z,97278.39
2017-11-22T05:52:34.289Z,97209.88
2017-11-22T05:53:37.944Z,97285.30
2017-11-22T05:54:41.587Z,97286.98
2017-11-22T05:55:45.195Z,97284.20
2017-11-22T05:56:48.821Z,97280.42
2017-11-22T05:57:52.433Z,97289.31
2017-11-22T05:58:56.522Z,97283.19
2017-11-22T06:00:00.133Z,97264.33
2017-11-22T06:01:07.721Z,97280.58
2017-11-22T06:02:11.339Z,97283.16
2017-11-22T06:03:15.026Z,97229.53
2017-11-22T06:04:18.654Z,97283.73
2017-11-22T06:05:22.720Z,97280.73
2017-11-22T06:06:26.314Z,97274.63
2017-11-22T06:07:29.960Z,97235.42
2017-11-22T06:08:33.583Z,97262.73
2017-11-22T06:09:37.437Z,97285.23
2017-11-22T06:10:41.058Z,97283.91
2017-11-22T06:11:45.112Z,97284.23
2017-11-22T06:12:49.013Z,97290.64
2017-11-22T06:13:53.189Z,97290.98
2017-11-22T06:14:56.918Z,97251.70
2017-11-22T06:16:00.652Z,97288.78
2017-11-22T06:17:04.311Z,97288.81
2017-11-22T06:18:08.418Z,97295.23
2017-11-22T06:19:12.108Z,97283.45
2017-11-22T06:20:15.734Z,97285.72
2017-11-22T06:21:19.340Z,97268.59
2017-11-22T06:22:23.040Z,97297.33
2017-11-22T06:23:26.701Z,97291.05
2017-11-22T06:24:30.850Z,97293.80
2017-11-22T06:25:34.555Z,97227.39
2017-11-22T06:26:38.397Z,97263.88
2017-11-22T06:27:42.064Z,97287.52
2017-11-22T06:28:45.682Z,97296.13
2017-11-22T06:30:06.009Z,97289.28
2017-11-22T06:31:09.731Z,97291.82
2017-11-22T06:32:13.388Z,97298.30
2017-11-22T06:33:17.047Z,97296.99
2017-11-22T06:34:20.945Z,97285.56
2017-11-22T06:35:24.859Z,97298.05
2017-11-22T06:36:29.867Z,97290.70
2017-11-22T06:37:33.501Z,97298.88
2017-11-22T06:38:37.221Z,97316.60
2017-11-22T06:39:40.955Z,97316.72
2017-11-22T06:40:44.662Z,97314.17
2017-11-22T06:41:48.358Z,97304.69
2017-11-22T06:42:52.323Z,97303.34
2017-11-22T06:43:56.005Z,97296.00
2017-11-22T06:44:59.694Z,97312.88
2017-11-22T06:46:03.459Z,97308.97
2017-11-22T06:47:07.144Z,97296.86
2017-11-22T06:48:10.774Z,97310.77
2017-11-22T06:49:14.444Z,97301.25
2017-11-22T06:50:18.070Z,97294.31
2017-11-22T06:51:21.796Z,97310.00
2017-11-22T06:52:26.295Z,97320.11
2017-11-22T06:53:29.913Z,97314.34
2017-11-22T06:54:33.600Z,97285.05
2017-11-22T06:55:37.851Z,97325.70
2017-11-22T06:56:41.675Z,97311.84
2017-11-22T06:57:45.501Z,97319.05
2017-11-22T06:58:49.305Z,97333.33
2017-11-22T06:59:53.161Z,97328.53
2017-11-22T07:00:56.990Z,97280.16
2017-11-22T07:02:01.195Z,97327.32
2017-11-22T07:03:11.242Z,97310.46
2017-11-22T07:04:15.130Z,97321.33
2017-11-22T07:05:18.796Z,97320.33
2017-11-22T07:06:22.464Z,97316.02
2017-11-22T07:07:26.128Z,97289.79
2017-11-22T07:08:30.282Z,97291.52
2017-11-22T07:09:34.903Z,97325.17
2017-11-22T07:10:38.730Z,97324.58
2017-11-22T07:11:42.652Z,97328.56
2017-11-22T07:12:46.453Z,97323.02
2017-11-22T07:13:50.347Z,97340.67
2017-11-22T07:14:55.095Z,97337.19
2017-11-22T07:15:59.085Z,97324.09
2017-11-22T07:17:07.733Z,97322.19
2017-11-22T07:18:11.890Z,97321.35
2017-11-22T07:19:15.742Z,97318.59
2017-11-22T07:20:19.496Z,97326.91
2017-11-22T07:21:23.575Z,97325.13
2017-11-22T07:22:27.531Z,97302.28
2017-11-22T07:23:31.414Z,97332.06
2017-11-22T07:24:35.384Z,97316.20
2017-11-22T07:25:39.343Z,97329.41
2017-11-22T07:26:43.251Z,97328.52
2017-11-22T07:27:47.127Z,97290.56
2017-11-22T07:28:51.023Z,97272.08
2017-11-22T07:29:55.107Z,97336.27
2017-11-22T07:30:58.963Z,97328.97
2017-11-22T07:32:02.792Z,97332.41
2017-11-22T07:33:06.898Z,97330.66
2017-11-22T07:34:10.928Z,97337.39
2017-11-22T07:35:14.739Z,97277.41
2017-11-22T07:36:23.601Z,97328.67
2017-11-22T07:37:32.259Z,97333.80
2017-11-22T07:38:36.119Z,97301.02
2017-11-22T07:39:40.382Z,97340.05
2017-11-22T07:40:44.884Z,97339.89
2017-11-22T07:41:48.638Z,97353.81
2017-11-22T07:42:52.976Z,97344.09
2017-11-22T07:43:56.820Z,97342.84
2017-11-22T07:45:00.562Z,97348.56
2017-11-22T07:46:04.751Z,97346.39
2017-11-22T07:47:12.603Z,97345.86
2017-11-22T07:48:16.549Z,97346.50
2017-11-22T07:49:20.383Z,97360.08
2017-11-22T07:50:24.216Z,97345.37
2017-11-22T07:51:33.460Z,97352.05
2017-11-22T07:52:37.371Z,97353.73
2017-11-22T07:53:41.205Z,97348.13
2017-11-22T07:54:45.225Z,97355.04
2017-11-22T07:55:49.832Z,97355.45
2017-11-22T07:56:53.637Z,97357.20
2017-11-22T07:57:57.872Z,97345.50
2017-11-22T07:59:13.432Z,97348.48
2017-11-22T08:00:17.370Z,97357.45
2017-11-22T08:01:21.670Z,97357.40
2017-11-22T08:02:28.557Z,97357.51
2017-11-22T08:03:35.274Z,97327.78
2017-11-22T08:04:39.452Z,97299.78
2017-11-22T08:05:43.276Z,97353.30
2017-11-22T08:06:47.061Z,97287.83
2017-11-22T08:07:50.941Z,97347.63
2017-11-22T08:08:54.821Z,97345.80
2017-11-22T08:09:58.685Z,97339.73
2017-11-22T08:11:02.864Z,97343.20
2017-11-22T08:12:06.800Z,97346.93
2017-11-22T08:13:10.722Z,97351.59
2017-11-22T08:14:14.419Z,97356.42
2017-11-22T08:15:18.039Z,97363.01
2017-11-22T08:16:21.834Z,97359.62
2017-11-22T08:17:26.011Z,97271.67
2017-11-22T08:18:29.822Z,97360.46
2017-11-22T08:19:33.760Z,97295.86
2017-11-22T08:20:37.622Z,97336.91
2017-11-22T08:21:41.727Z,97290.23
2017-11-22T08:22:45.560Z,97362.38
2017-11-22T08:23:50.385Z,97355.75
2017-11-22T08:24:54.512Z,97363.85
2017-11-22T08:25:58.336Z,97372.38
2017-11-22T08:27:02.138Z,97349.27
2017-11-22T08:28:06.012Z,97363.44
2017-11-22T08:29:09.897Z,97354.34
2017-11-22T08:30:14.511Z,97360.73
2017-11-22T08:31:18.228Z,97358.53
2017-11-22T08:32:21.983Z,97366.25
2017-11-22T08:33:25.717Z,97362.44
2017-11-22T08:34:29.575Z,97366.02
2017-11-22T08:35:33.340Z,97359.59
2017-11-22T08:36:37.608Z,97384.23
2017-11-22T08:37:41.362Z,97367.75
2017-11-22T08:38:45.201Z,97378.52
2017-11-22T08:39:48.988Z,97373.34
2017-11-22T08:40:52.843Z,97368.53
2017-11-22T08:41:56.737Z,97371.95
2017-11-22T08:43:05.769Z,97366.25
2017-11-22T08:44:09.651Z,97375.91
2017-11-22T08:45:13.562Z,97296.95
2017-11-22T08:46:17.463Z,97374.14
2017-11-22T08:47:21.268Z,97373.97
2017-11-22T08:48:25.116Z,97376.88
2017-11-22T08:49:29.204Z,97367.45
2017-11-22T08:50:32.868Z,97361.01
2017-11-22T08:51:36.597Z,97367.14
2017-11-22T08:52:40.309Z,97347.38
2017-11-22T08:53:43.975Z,97304.17
2017-11-22T08:54:53.248Z,97368.63
2017-11-22T08:56:01.855Z,97380.04
2017-11-22T08:57:11.183Z,97367.81
2017-11-22T08:58:17.940Z,97380.25
2017-11-22T08:59:21.828Z,97377.99
2017-11-22T09:00:25.861Z,97375.02
2017-11-22T09:01:30.273Z,97381.87
2017-11-22T09:02:34.099Z,97388.98
2017-11-22T09:03:42.945Z,97317.70
2017-11-22T09:04:46.808Z,97374.58
2017-11-22T09:06:31.308Z,97374.43
2017-11-22T09:07:35.503Z,97377.06
2017-11-22T09:08:39.370Z,97381.78
2017-11-22T09:09:43.260Z,97378.70
2017-11-22T09:10:47.140Z,97378.67
2017-11-22T09:11:55.896Z,97384.03
2017-11-22T09:13:47.799Z,97390.62
2017-11-22T09:14:56.456Z,97383.20
2017-11-22T09:16:00.455Z,97408.33
2017-11-22T09:17:04.386Z,97385.25
2017-11-22T09:18:13.206Z,97398.00
2017-11-22T09:19:17.027Z,97383.75
2017-11-22T09:20:21.278Z,97377.76
2017-11-22T09:21:25.080Z,97381.78
2017-11-22T09:22:28.955Z,97390.33
2017-11-22T09:23:32.826Z,97381.88
2017-11-22T09:24:41.750Z,97394.48
2017-11-22T09:25:45.905Z,97391.73
2017-11-22T09:26:50.042Z,97379.95
2017-11-22T09:27:57.599Z,97395.45
2017-11-22T09:29:01.511Z,97385.86
2017-11-22T09:30:10.255Z,97388.50
2017-11-22T09:31:19.013Z,97383.73
2017-11-22T09:32:27.892Z,97340.98
2017-11-22T09:33:31.720Z,97389.27
2017-11-22T09:34:40.522Z,97340.92
2017-11-22T09:35:44.261Z,97396.16
2017-11-22T09:36:48.877Z,97393.77
2017-11-22T09:37:52.663Z,97342.54
2017-11-22T09:38:56.947Z,97388.88
2017-11-22T09:40:00.802Z,97386.97
2017-11-22T09:41:04.591Z,97394.81
2017-11-22T09:42:10.057Z,97391.81
2017-11-22T09:43:13.863Z,97392.61
2017-11-22T09:44:17.665Z,97393.98
2017-11-22T09:45:21.982Z,97387.06
2017-11-22T09:46:26.665Z,97319.69
2017-11-22T09:47:31.474Z,97371.77
2017-11-22T09:48:35.308Z,97380.20
2017-11-22T09:49:39.158Z,97361.34
2017-11-22T09:50:42.875Z,97392.98
2017-11-22T09:51:47.142Z,97383.56
2017-11-22T09:52:50.957Z,97388.37
2017-11-22T09:53:55.616Z,97376.98
2017-11-22T09:54:59.423Z,97372.04
2017-11-22T09:56:03.981Z,97377.98
2017-11-22T09:57:07.688Z,97378.38
2017-11-22T09:58:11.773Z,97377.32
2017-11-22T09:59:15.581Z,97368.75
2017-11-22T10:00:19.592Z,97308.16
2017-11-22T10:01:23.369Z,97379.52
2017-11-22T10:02:27.136Z,97375.02
2017-11-22T10:03:30.888Z,97332.57
2017-11-22T10:04:34.913Z,97382.58
2017-11-22T10:05:38.687Z,97338.26
2017-11-22T10:06:42.472Z,97386.31
2017-11-22T10:07:46.171Z,97312.83
2017-11-22T10:08:49.894Z,97287.57
2017-11-22T10:09:53.627Z,97376.72
2017-11-22T10:10:57.943Z,97379.72
2017-11-22T10:12:02.069Z,97379.95
2017-11-22T10:13:05.819Z,97374.91
2017-11-22T10:14:09.547Z,97368.99
2017-11-22T10:15:13.277Z,97304.80
2017-11-22T10:16:17.069Z,97346.45
2017-11-22T10:17:25.312Z,97374.47
2017-11-22T10:18:29.706Z,97369.37
2017-11-22T10:19:37.483Z,97377.65
2017-11-22T10:20:45.218Z,97338.30
2017-11-22T10:21:49.320Z,97328.58
2017-11-22T10:22:53.200Z,97329.99
2017-11-22T10:24:01.105Z,97369.14
2017-11-22T10:25:08.902Z,97362.54
2017-11-22T10:26:16.670Z,97365.03
2017-11-22T10:27:24.490Z,97373.12
2017-11-22T10:28:30.228Z,97368.70
2017-11-22T10:29:38.019Z,97365.08
2017-11-22T10:30:43.139Z,97371.34
2017-11-22T10:31:50.914Z,97364.54
2017-11-22T10:32:54.973Z,97365.78
2017-11-22T10:33:58.705Z,97366.18
2017-11-22T10:35:02.513Z,97367.25
2017-11-22T10:36:06.776Z,97369.81
2017-11-22T10:37:10.747Z,97359.77
2017-11-22T10:38:15.156Z,97355.45
2017-11-22T10:39:18.961Z,97355.16
2017-11-22T10:40:22.945Z,97368.38
2017-11-22T10:41:26.816Z,97355.54
2017-11-22T10:42:30.831Z,97360.12
2017-11-22T10:43:34.605Z,97302.71
2017-11-22T10:44:38.238Z,97372.50
2017-11-22T10:45:41.989Z,97249.37
2017-11-22T10:46:45.683Z,97357.39
2017-11-22T10:47:49.322Z,97358.48
2017-11-22T10:48:53.010Z,97348.55
2017-11-22T10:49:57.528Z,97264.31
2017-11-22T10:51:01.275Z,97344.28
2017-11-22T10:52:05.644Z,97347.91
2017-11-22T10:53:09.420Z,97336.32
2017-11-22T10:54:13.496Z,97340.12
2017-11-22T10:55:17.243Z,97341.68
2017-11-22T10:56:20.931Z,97344.80
2017-11-22T10:57:25.216Z,97338.07
2017-11-22T10:58:29.020Z,97339.23
2017-11-22T11:15:38.727Z,97337.66
2017-11-22T11:16:42.672Z,97336.45
2017-11-22T11:17:46.642Z,97339.39
2017-11-22T11:18:50.506Z,97333.13
2017-11-22T11:19:54.751Z,97291.21
2017-11-22T11:21:00.656Z,97343.94
2017-11-22T11:22:04.554Z,97329.53
2017-11-22T11:23:08.427Z,97337.00
2017-11-22T11:24:12.312Z,97338.98
2017-11-22T11:25:16.130Z,97336.59
2017-11-22T11:26:19.922Z,97262.91
2017-11-22T11:27:24.080Z,97341.43
2017-11-22T11:28:27.975Z,97339.95
2017-11-22T11:29:31.876Z,97330.55
2017-11-22T11:30:35.932Z,97341.83
2017-11-22T11:31:39.913Z,97340.51
2017-11-22T11:32:43.890Z,97333.03
2017-11-22T11:33:49.169Z,97331.80
2017-11-22T11:34:53.142Z,97179.83
2017-11-22T11:36:01.248Z,97327.15
2017-11-22T11:37:05.127Z,97309.98
2017-11-22T11:38:08.959Z,97322.09
2017-11-22T11:39:12.779Z,97319.08
2017-11-22T11:40:16.604Z,97261.36
2017-11-22T11:41:20.877Z,97325.71
2017-11-22T11:42:24.628Z,97334.36
2017-11-22T11:43:28.412Z,97328.41
2017-11-22T11:44:32.121Z,97322.14
2017-11-22T11:45:36.301Z,97307.81
2017-11-22T11:46:40.111Z,97321.81
2017-11-22T11:47:44.006Z,97251.03
2017-11-22T11:48:47.807Z,97305.67
2017-11-22T11:49:51.782Z,97318.23
2017-11-22T11:50:55.616Z,97242.97
2017-11-22T11:52:00.118Z,97309.02
2017-11-22T11:53:04.068Z,97308.92
2017-11-22T11:54:08.021Z,97318.77
2017-11-22T11:55:12.024Z,97255.27
2017-11-22T11:56:16.012Z,97311.56
2017-11-22T11:57:19.923Z,97199.70
2017-11-22T11:58:24.139Z,97297.48
2017-11-22T11:59:27.992Z,97302.81
2017-11-22T12:00:31.835Z,97303.83
2017-11-22T12:01:35.667Z,97229.03
2017-11-22T12:02:39.557Z,97297.76
2017-11-22T12:03:43.475Z,97292.32
2017-11-22T12:04:47.750Z,97293.14
2017-11-22T12:05:51.675Z,97287.64
2017-11-22T12:06:55.560Z,97293.20
2017-11-22T12:08:00.269Z,97293.41
2017-11-22T12:09:04.146Z,97292.11
2017-11-22T12:10:08.313Z,97292.23
2017-11-22T12:11:13.293Z,97285.91
2017-11-22T12:12:17.069Z,97289.45
2017-11-22T12:13:20.759Z,97286.80
2017-11-22T12:14:24.385Z,97289.45
2017-11-22T12:15:28.074Z,97290.38
2017-11-22T12:16:31.924Z,97288.08
2017-11-22T12:17:37.027Z,97253.30
2017-11-22T12:18:40.723Z,97298.59
2017-11-22T12:19:44.624Z,97285.72
2017-11-22T12:21:05.361Z,97213.75
2017-11-22T12:25:30.499Z,97284.67
2017-11-22T12:26:34.434Z,97266.58
2017-11-22T12:27:38.400Z,97202.56
2017-11-22T12:28:42.679Z,97280.98
2017-11-22T12:29:47.383Z,97273.77
2017-11-22T12:30:51.601Z,97278.83
2017-11-22T12:31:56.344Z,97276.50
2017-11-22T12:33:00.158Z,97254.91
2017-11-22T12:34:04.183Z,97279.41
2017-11-22T12:35:07.942Z,97179.53
2017-11-22T12:36:11.758Z,97275.55
2017-11-22T12:37:15.939Z,97274.64
2017-11-22T12:38:19.995Z,97278.53
2017-11-22T12:39:23.808Z,97275.19
2017-11-22T12:40:27.614Z,97282.15
2017-11-22T12:41:31.518Z,97278.88
2017-11-22T12:42:35.380Z,97274.72
2017-11-22T12:43:39.654Z,97272.23
2017-11-22T12:44:43.496Z,97269.27
2017-11-22T12:45:47.295Z,97259.94
2017-11-22T12:46:50.952Z,97248.25
2017-11-22T12:47:54.778Z,97251.94
2017-11-22T12:48:58.504Z,97222.84
2017-11-22T12:50:02.318Z,97252.32
2017-11-22T12:51:06.132Z,97253.64
2017-11-22T12:52:10.007Z,97265.13
2017-11-22T12:53:13.803Z,97262.09
2017-11-22T12:54:17.727Z,97187.84
2017-11-22T12:55:22.825Z,97284.31
2017-11-22T12:56:26.819Z,97266.92
2017-11-22T12:57:30.804Z,97219.30
2017-11-22T12:58:34.578Z,97238.95
2017-11-22T12:59:38.327Z,97266.00
2017-11-22T13:00:42.139Z,97261.38
2017-11-22T13:01:46.289Z,97266.14
2017-11-22T13:02:50.956Z,97279.28
2017-11-22T13:03:54.733Z,97234.34
2017-11-22T13:04:58.507Z,97253.95
2017-11-22T13:06:02.336Z,97248.00
2017-11-22T13:07:06.151Z,97266.00
2017-11-22T13:08:10.273Z,97262.34
2017-11-22T13:09:14.125Z,97254.86
2017-11-22T13:13:35.742Z,97262.77
2017-11-22T13:14:39.520Z,97222.73
2017-11-22T13:15:43.335Z,97165.69